Ana Sayfa
METAR-TAF:

METAR-TAF

Havaalanları :

Gatineau, Quebec, Kanada

Enlem: 45-31N, Boylam: 075-34W, yükseklik: 64 m

Güncel hava durumu gözlemi

Rapor saat 00:00 UTC de 56 dakika önce yapıldı.
Rüzgar batıdan 4 kt
Sıcaklık 0°C
Nem 100%
Basınç 1001 hPa
Görüş mesafesi: 4.8 km
700 ft yükseklikte çok bulutlu
hafif kar

METAR: CYND 270000Z 26004KT 3SM -SN OVC007 00/00 A2956 RMK ST8 SLP015

Saat: 19:56 (00:56 UTC)

Tahmin

Rapor saat 23:41 UTC de 1 saat ve 15 dakika önce yapıldı.
Ayın 27'si saat 00 UTC'den ayın 27'si saat 02 UTC'ye kadar geçerli Tahmin
Rüzgar batı/güneybatıdan 10 kt
400 ft yükseklikte çok bulutlu
hafif kar, Pus
Geçici
ayın 27'si saat 00 UTC'den ayın 27'si saat 02 UTC'ye kadar
Görüş mesafesi: 4.8 km
600 ft yükseklikte çok bulutlu
hafif kar

TAF: CYND 262341Z 2700/2702 24010KT 11/2SM -SN BR OVC004 TEMPO 2700/2702 3SM -SN OVC006 RMK NXT FCST WILL BE ISSUED AT 271345Z

4.000'den fazla havaalanı için hava durumu gözlemleri ve tahminleri (METAR ve TAF raporları).

Kullanılabilir istasyonlar harita üzerinde sarı ve kırmızı noktalarla gösterilir.

İstasyonun adını görmek için fareyi noktanın üzerinde gezdirin.

Sonrasında hava gözlem ve tahminlerini görmek için tıklayın.

Haritayı değiştirmek için: yaklaştırmak için siyah artı işaretli yeşil düğmeye ve uzaklaştırmak için de eksi işaretli düğmeye hızla tıklayın; bitişik haritalar için yeşil okları kullanın.


METAR-TAF: